Time;durP1;ratioP1;P1;durP2;ratioP2;P2;SDS_P1;SDS_P2;PMS_P1;PMS_P2;Temp;Humidity;BMP_temperature;BMP_pressure;BME280_temperature;BME280_humidity;BME280_pressure;Samples;Min_cycle;Max_cycle;Signal;HPM_P1;HPM_P2
2022/05/23 00:01:57;;;;;;;7.70;3.20;;;;;;;16.58;71.54;100784.88;4996482;28;20544;-59
2022/05/23 00:04:26;;;;;;;8.77;3.03;;;;;;;16.56;72.32;100789.47;4995884;28;20074;-60
2022/05/23 00:06:58;;;;;;;7.40;2.50;;;;;;;16.54;70.24;100775.50;4995734;28;20397;-59
2022/05/23 00:09:26;;;;;;;8.80;2.63;;;;;;;16.48;71.50;100776.88;4995077;28;20043;-60
2022/05/23 00:11:55;;;;;;;6.88;2.70;;;;;;;16.49;72.37;100767.13;4991418;28;20058;-60
2022/05/23 00:14:22;;;;;;;8.32;3.10;;;;;;;16.45;72.03;100765.72;4994311;28;20046;-61
2022/05/23 00:16:51;;;;;;;10.55;3.20;;;;;;;16.38;73.46;100763.63;4993864;28;20112;-60
2022/05/23 00:19:19;;;;;;;10.27;3.88;;;;;;;16.40;72.67;100763.47;4991500;28;20046;-60
2022/05/23 00:21:47;;;;;;;8.73;3.53;;;;;;;16.37;72.47;100761.97;4995361;28;20442;-59
2022/05/23 00:24:20;;;;;;;10.38;3.58;;;;;;;16.38;71.89;100749.53;4994912;28;20050;-60
2022/05/23 00:26:51;;;;;;;8.13;3.03;;;;;;;16.36;72.30;100747.00;4992579;28;20046;-59
2022/05/23 00:29:20;;;;;;;8.27;3.15;;;;;;;16.32;73.20;100744.75;4994311;28;20210;-60
2022/05/23 00:37:20;;;;;;;6.57;2.25;;;;;;;16.21;72.67;100740.41;4995651;28;20382;-60
2022/05/23 00:39:50;;;;;;;5.70;2.30;;;;;;;16.25;72.50;100727.72;4995699;28;20121;-59
2022/05/23 00:45:13;;;;;;;6.15;2.50;;;;;;;16.25;73.71;100712.63;4995647;28;20069;-60
2022/05/23 00:47:43;;;;;;;9.27;2.72;;;;;;;16.16;73.22;100703.72;4994035;28;20113;-60
2022/05/23 00:50:14;;;;;;;7.25;2.92;;;;;;;16.07;73.39;100693.94;4992413;28;20049;-61
2022/05/23 00:52:46;;;;;;;10.52;4.57;;;;;;;16.14;74.07;100689.75;4994292;28;20069;-60
2022/05/23 00:55:20;;;;;;;14.43;4.97;;;;;;;16.08;74.56;100681.53;4995492;28;20185;-60
2022/05/23 00:57:52;;;;;;;12.80;5.63;;;;;;;16.04;73.95;100681.78;4995357;28;20042;-59
2022/05/23 01:00:21;;;;;;;10.35;4.28;;;;;;;15.96;74.53;100680.81;4995217;28;20092;-60
2022/05/23 01:02:54;;;;;;;10.32;4.40;;;;;;;15.95;74.54;100676.47;4995218;28;20054;-59
2022/05/23 01:05:24;;;;;;;9.10;3.58;;;;;;;15.98;74.12;100663.78;4992705;28;20093;-60
2022/05/23 01:07:52;;;;;;;11.00;3.97;;;;;;;15.90;74.23;100647.75;4993297;28;20054;-58
2022/05/23 01:10:21;;;;;;;12.23;4.78;;;;;;;15.91;74.41;100644.13;4995129;28;20108;-60
2022/05/23 01:12:50;;;;;;;12.20;5.10;;;;;;;15.96;74.23;100647.16;4995531;28;20141;-60
2022/05/23 01:15:21;;;;;;;10.57;4.88;;;;;;;15.91;73.43;100636.16;4994971;28;20058;-62
2022/05/23 01:17:49;;;;;;;12.85;5.20;;;;;;;15.79;74.85;100637.22;4995203;28;20497;-60
2022/05/23 01:20:18;;;;;;;9.75;4.53;;;;;;;15.78;74.82;100635.56;4994996;28;20078;-60
2022/05/23 01:22:55;;;;;;;10.60;5.10;;;;;;;15.80;75.05;100644.22;4994788;28;20043;-60
2022/05/23 01:25:32;;;;;;;12.40;4.85;;;;;;;15.75;74.68;100652.59;4992230;28;20081;-61
2022/05/23 01:28:01;;;;;;;9.82;4.63;;;;;;;15.77;75.02;100655.09;4993658;28;20042;-60
2022/05/23 01:30:31;;;;;;;7.88;3.38;;;;;;;15.80;75.30;100654.84;4994668;28;20058;-60
2022/05/23 01:32:59;;;;;;;8.43;3.05;;;;;;;15.72;76.04;100669.59;4993914;28;20061;-60
2022/05/23 01:35:27;;;;;;;8.80;2.88;;;;;;;15.76;75.98;100666.66;4992344;28;20109;-60
2022/05/23 01:37:55;;;;;;;7.22;2.40;;;;;;;15.82;76.24;100663.50;4993058;28;20044;-59
2022/05/23 01:40:23;;;;;;;7.90;2.83;;;;;;;15.80;76.07;100661.00;4994251;28;20047;-59
2022/05/23 01:42:53;;;;;;;5.22;2.45;;;;;;;15.77;76.95;100655.09;4991718;28;20125;-60
2022/05/23 01:45:24;;;;;;;8.82;2.80;;;;;;;15.77;76.77;100652.44;4991931;28;20379;-60
2022/05/23 01:47:53;;;;;;;5.95;2.58;;;;;;;15.64;77.74;100645.59;4994202;28;20054;-60
2022/05/23 01:50:23;;;;;;;7.20;2.80;;;;;;;15.62;77.75;100644.88;4994056;28;20058;-59
2022/05/23 01:52:52;;;;;;;6.35;2.70;;;;;;;15.64;77.62;100645.59;4994229;28;20056;-60
2022/05/23 01:55:21;;;;;;;11.30;4.07;;;;;;;15.52;77.82;100639.56;4991935;28;20094;-60
2022/05/23 01:57:49;;;;;;;11.63;4.38;;;;;;;15.50;78.22;100641.53;4990400;28;20069;-60
2022/05/23 02:03:05;;;;;;;13.98;6.47;;;;;;;15.50;78.66;100638.88;4994483;28;20050;-60
2022/05/23 02:05:34;;;;;;;15.00;6.03;;;;;;;15.56;78.69;100637.50;4993804;28;20077;-60
2022/05/23 02:08:02;;;;;;;11.32;5.50;;;;;;;15.61;78.48;100650.31;4990994;28;20055;-58
2022/05/23 02:10:31;;;;;;;12.88;6.00;;;;;;;15.54;79.09;100645.59;4992122;28;20081;-59
2022/05/23 02:13:02;;;;;;;13.05;5.43;;;;;;;15.47;79.41;100646.25;4993712;28;20061;-59
2022/05/23 02:15:33;;;;;;;13.32;5.70;;;;;;;15.59;78.73;100642.50;4994023;28;20065;-60
2022/05/23 02:18:02;;;;;;;11.73;5.63;;;;;;;15.64;78.81;100652.72;4993239;28;20050;-60
2022/05/23 02:20:31;;;;;;;15.68;5.93;;;;;;;15.59;78.98;100647.81;4993655;28;20081;-61
2022/05/23 02:22:59;;;;;;;12.35;5.07;;;;;;;15.49;79.08;100647.81;4993816;28;20057;-59
2022/05/23 02:25:27;;;;;;;11.35;5.18;;;;;;;15.46;79.91;100644.56;4993394;28;20557;-59
2022/05/23 02:27:56;;;;;;;11.23;5.35;;;;;;;15.46;80.23;100641.94;4993667;28;20096;-60
2022/05/23 02:30:24;;;;;;;13.80;5.65;;;;;;;15.43;80.25;100631.59;4993658;28;20062;-61
2022/05/23 02:32:53;;;;;;;10.50;5.65;;;;;;;15.38;80.40;100635.50;4993343;28;20501;-60
2022/05/23 02:35:22;;;;;;;12.88;5.95;;;;;;;15.41;80.46;100629.09;4993058;28;20141;-61
2022/05/23 02:37:50;;;;;;;12.95;5.13;;;;;;;15.38;80.60;100626.72;4993464;28;20478;-59
2022/05/23 02:40:18;;;;;;;10.98;5.35;;;;;;;15.38;80.38;100630.22;4991915;28;20501;-59
2022/05/23 02:42:46;;;;;;;11.57;5.05;;;;;;;15.40;79.91;100623.94;4988809;28;20136;-60
2022/05/23 02:45:15;;;;;;;12.10;4.75;;;;;;;15.35;81.40;100619.88;4991578;28;20497;-60
2022/05/23 02:47:43;;;;;;;10.98;4.85;;;;;;;15.38;80.91;100614.31;4993158;28;20490;-60
2022/05/23 02:50:14;;;;;;;10.23;5.28;;;;;;;15.35;80.69;100614.59;4993240;28;20074;-61
2022/05/23 02:52:44;;;;;;;12.07;5.85;;;;;;;15.30;81.09;100600.91;4992468;28;20046;-60
2022/05/23 02:55:12;;;;;;;13.18;6.28;;;;;;;15.30;80.71;100600.91;4989397;28;20362;-60
2022/05/23 02:57:40;;;;;;;11.52;5.70;;;;;;;15.23;80.94;100596.28;4990739;28;20093;-60
2022/05/23 03:00:10;;;;;;;13.02;6.05;;;;;;;15.17;80.96;100595.03;4992876;28;20405;-60
2022/05/23 03:05:26;;;;;;;11.02;4.70;;;;;;;15.14;81.53;100587.34;4992839;28;20046;-60
2022/05/23 03:07:54;;;;;;;12.98;4.90;;;;;;;15.20;81.63;100589.44;4990830;28;20046;-60
2022/05/23 03:10:23;;;;;;;13.80;5.25;;;;;;;15.11;82.39;100580.50;4990195;28;20475;-61
2022/05/23 03:12:52;;;;;;;9.25;4.68;;;;;;;15.09;82.46;100571.84;4991019;28;20061;-60
2022/05/23 03:15:21;;;;;;;14.00;5.93;;;;;;;15.13;82.54;100569.78;4992885;28;20522;-61
2022/05/23 03:17:49;;;;;;;15.20;7.38;;;;;;;15.09;82.43;100550.66;4992216;28;20038;-60
2022/05/23 03:20:18;;;;;;;15.45;7.57;;;;;;;15.02;83.59;100561.00;4989915;28;20129;-60
2022/05/23 03:28:20;;;;;;;19.33;8.40;;;;;;;14.99;84.29;100540.06;4988677;28;20050;-60
2022/05/23 03:30:49;;;;;;;18.85;8.48;;;;;;;15.03;83.83;100530.03;4989642;28;20046;-60
2022/05/23 03:33:17;;;;;;;18.73;9.50;;;;;;;14.95;84.10;100528.06;4992150;28;20055;-60
2022/05/23 03:35:46;;;;;;;17.80;8.98;;;;;;;14.96;84.34;100520.97;4992065;28;20057;-60
2022/05/23 03:38:16;;;;;;;19.88;9.07;;;;;;;14.88;84.91;100511.88;4992368;28;20042;-60
2022/05/23 03:40:44;;;;;;;22.23;8.85;;;;;;;14.87;84.94;100506.72;4992457;28;20501;-60
2022/05/23 03:43:14;;;;;;;20.65;9.13;;;;;;;14.83;84.86;100500.88;4992470;28;20129;-60
2022/05/23 03:45:42;;;;;;;18.42;9.45;;;;;;;14.94;84.80;100493.78;4992636;28;20061;-60
2022/05/23 03:48:11;;;;;;;20.60;10.10;;;;;;;14.81;85.16;100488.75;4990496;28;21015;-59
2022/05/23 03:50:40;;;;;;;19.27;9.90;;;;;;;14.77;85.59;100485.53;4990263;28;20457;-59
2022/05/23 03:53:08;;;;;;;17.98;10.00;;;;;;;14.77;86.22;100482.06;4992565;28;20061;-60
2022/05/23 03:55:37;;;;;;;19.65;9.57;;;;;;;14.78;85.57;100479.28;4992620;28;20053;-60
2022/05/23 03:58:06;;;;;;;19.77;9.75;;;;;;;14.76;86.20;100477.75;4992440;28;20438;-60
2022/05/23 04:00:34;;;;;;;17.52;9.10;;;;;;;14.77;85.78;100469.66;4988832;28;20134;-59
2022/05/23 04:03:02;;;;;;;16.10;8.00;;;;;;;14.79;86.00;100467.72;4988400;28;20054;-60
2022/05/23 04:05:30;;;;;;;16.45;7.63;;;;;;;14.69;86.76;100466.84;4992064;28;20105;-61
2022/05/23 04:07:58;;;;;;;12.60;6.80;;;;;;;14.75;86.62;100461.03;4992722;28;20134;-61
2022/05/23 04:10:26;;;;;;;13.35;6.30;;;;;;;14.74;86.48;100456.69;4990510;28;20135;-61
2022/05/23 04:12:57;;;;;;;12.52;6.13;;;;;;;14.74;86.92;100456.69;4989032;28;20054;-60
2022/05/23 04:15:25;;;;;;;11.75;5.43;;;;;;;14.77;86.97;100460.88;4991695;28;20070;-59
2022/05/23 04:17:53;;;;;;;10.57;5.43;;;;;;;14.73;87.09;100456.84;4991162;28;20125;-60
2022/05/23 04:20:21;;;;;;;10.13;5.82;;;;;;;14.72;87.58;100458.63;4987325;28;20047;-60
2022/05/23 04:22:49;;;;;;;9.32;5.35;;;;;;;14.78;87.59;100447.50;4990128;28;20506;-60
2022/05/23 04:25:17;;;;;;;10.60;5.47;;;;;;;14.80;87.13;100447.38;4991673;28;20096;-59
2022/05/23 04:27:45;;;;;;;13.02;5.15;;;;;;;14.82;86.85;100448.91;4991836;28;20517;-59
2022/05/23 04:30:15;;;;;;;10.63;5.70;;;;;;;14.86;86.73;100450.31;4991456;28;20046;-60
2022/05/23 04:35:29;;;;;;;11.52;5.45;;;;;;;14.89;87.06;100438.63;4989852;28;20051;-59
2022/05/23 04:37:57;;;;;;;12.10;5.97;;;;;;;14.89;87.01;100443.91;4992095;28;20535;-60
2022/05/23 04:40:28;;;;;;;14.80;6.53;;;;;;;14.83;87.34;100437.34;4991942;28;20057;-60
2022/05/23 04:42:56;;;;;;;10.85;6.05;;;;;;;14.88;86.92;100443.06;4995581;28;20144;-60
2022/05/23 04:45:26;;;;;;;12.25;6.10;;;;;;;14.90;87.23;100432.31;4995253;28;20042;-60
2022/05/23 04:50:40;;;;;;;10.60;5.72;;;;;;;14.94;88.03;100435.53;4992723;28;20104;-61
2022/05/23 04:53:08;;;;;;;11.80;5.88;;;;;;;14.99;87.99;100425.38;4991871;28;20406;-60
2022/05/23 04:55:37;;;;;;;9.68;5.55;;;;;;;15.01;87.66;100421.63;4995327;28;20050;-60
2022/05/23 04:58:05;;;;;;;10.70;6.13;;;;;;;15.03;87.65;100422.31;4995312;28;20050;-59
2022/05/23 05:00:35;;;;;;;13.45;6.63;;;;;;;15.12;87.07;100414.50;4991999;28;20049;-59
2022/05/23 05:03:10;;;;;;;11.95;5.75;;;;;;;15.19;87.66;100407.69;4992108;28;20050;-60
2022/05/23 05:05:38;;;;;;;12.55;6.63;;;;;;;15.26;86.46;100408.78;4993990;28;20141;-61
2022/05/23 05:08:06;;;;;;;11.35;6.30;;;;;;;15.27;86.65;100410.47;4994904;28;20050;-59
2022/05/23 05:10:34;;;;;;;12.32;6.07;;;;;;;15.26;87.70;100410.59;4994698;28;20508;-60
2022/05/23 05:13:02;;;;;;;12.60;6.75;;;;;;;15.34;87.19;100406.25;4995117;28;20137;-60
2022/05/23 05:15:30;;;;;;;13.35;5.95;;;;;;;15.40;86.54;100401.38;4994854;28;20521;-60
2022/05/23 05:18:00;;;;;;;13.25;5.88;;;;;;;15.37;87.67;100410.44;4993941;28;20414;-59
2022/05/23 05:20:29;;;;;;;12.10;5.80;;;;;;;15.42;87.16;100402.06;4992057;28;20494;-60
2022/05/23 05:22:57;;;;;;;12.18;5.93;;;;;;;15.43;87.00;100396.59;4992090;28;20129;-59
2022/05/23 05:25:25;;;;;;;9.88;5.50;;;;;;;15.45;87.24;100396.50;4994410;28;20054;-59
2022/05/23 05:27:53;;;;;;;11.43;5.30;;;;;;;15.55;87.75;100389.34;4994822;28;20121;-60
2022/05/23 05:30:23;;;;;;;10.20;5.60;;;;;;;15.58;87.96;100388.22;4994796;28;20442;-60
2022/05/23 05:32:58;;;;;;;9.38;5.85;;;;;;;15.69;87.60;100391.53;4994800;28;20438;-61
2022/05/23 05:35:33;;;;;;;9.73;5.50;;;;;;;15.75;87.51;100386.63;4994380;28;20537;-60
2022/05/23 05:38:05;;;;;;;11.80;5.72;;;;;;;15.79;87.46;100378.25;4994554;28;20436;-61
2022/05/23 05:40:36;;;;;;;10.55;5.50;;;;;;;15.80;86.89;100368.50;4994450;28;20046;-60
2022/05/23 05:43:12;;;;;;;12.68;5.45;;;;;;;15.90;86.72;100369.31;4993780;28;20509;-59
2022/05/23 05:45:43;;;;;;;10.00;6.13;;;;;;;15.99;85.17;100373.75;4991577;28;20057;-60
2022/05/23 05:48:12;;;;;;;11.00;5.55;;;;;;;16.04;85.55;100360.03;4992556;28;20082;-60
2022/05/23 05:50:50;;;;;;;9.15;5.55;;;;;;;16.10;85.95;100358.59;4991854;28;20132;-59
2022/05/23 05:53:19;;;;;;;;;;;;;;;16.29;85.82;100358.50;4988882;28;20101;-60
2022/05/23 05:55:47;;;;;;;11.10;5.93;;;;;;;16.34;85.30;100350.91;4994110;28;20037;-60
2022/05/23 05:58:17;;;;;;;10.75;6.30;;;;;;;16.43;85.17;100349.19;4994159;28;20046;-60
2022/05/23 06:00:48;;;;;;;13.68;5.80;;;;;;;16.52;85.47;100348.31;4992607;28;20077;-61
2022/05/23 06:03:16;;;;;;;11.23;6.55;;;;;;;16.66;85.15;100348.75;4993877;28;20129;-61
2022/05/23 06:11:27;;;;;;;11.88;6.07;;;;;;;16.90;83.10;100350.81;4993657;28;20046;-61
2022/05/23 06:13:59;;;;;;;13.15;5.97;;;;;;;16.96;83.42;100354.69;4993685;28;20110;-61
2022/05/23 06:16:29;;;;;;;9.32;6.35;;;;;;;17.01;82.53;100339.94;4993584;28;20050;-60
2022/05/23 06:18:58;;;;;;;12.20;5.57;;;;;;;17.05;81.91;100349.28;4993727;28;20406;-60
2022/05/23 06:21:28;;;;;;;12.88;6.20;;;;;;;17.09;82.13;100339.19;4993853;28;20078;-60
2022/05/23 06:23:57;;;;;;;10.15;6.22;;;;;;;17.23;81.95;100341.28;4993539;28;20054;-60
2022/05/23 06:26:32;;;;;;;13.30;6.38;;;;;;;17.32;81.76;100334.19;4993379;28;20046;-59
2022/05/23 06:29:00;;;;;;;11.73;6.25;;;;;;;17.42;82.22;100335.91;4993611;28;20077;-60
2022/05/23 06:31:29;;;;;;;11.73;6.10;;;;;;;17.51;82.50;100325.16;4992025;28;20046;-60
2022/05/23 06:33:57;;;;;;;11.43;6.07;;;;;;;17.60;81.69;100330.53;4991530;28;20586;-60
2022/05/23 06:36:28;;;;;;;12.85;6.43;;;;;;;17.69;80.86;100325.09;4990154;28;20054;-60
2022/05/23 06:38:56;;;;;;;11.93;6.57;;;;;;;17.71;81.55;100322.25;4992349;28;20050;-60
2022/05/23 06:41:24;;;;;;;13.82;6.57;;;;;;;17.90;80.77;100310.53;4993252;28;20054;-61
2022/05/23 06:43:53;;;;;;;10.15;6.57;;;;;;;17.87;81.69;100302.88;4993163;28;20121;-61
2022/05/23 06:46:21;;;;;;;10.35;6.28;;;;;;;17.95;80.41;100302.94;4992061;28;20149;-61
2022/05/23 06:48:49;;;;;;;13.48;6.70;;;;;;;18.03;79.25;100297.66;4993211;28;20057;-61
2022/05/23 06:51:17;;;;;;;10.93;5.82;;;;;;;18.07;79.96;100296.34;4993134;28;20049;-61
2022/05/23 06:53:46;;;;;;;11.25;6.40;;;;;;;18.14;80.56;100301.03;4990680;28;20047;-61
2022/05/23 06:56:14;;;;;;;11.98;6.97;;;;;;;18.21;80.13;100308.16;4989283;28;20409;-60
2022/05/23 06:58:42;;;;;;;10.25;6.43;;;;;;;18.32;79.71;100303.53;4993105;28;20081;-60
2022/05/23 07:01:11;;;;;;;9.65;5.80;;;;;;;18.43;78.20;100297.91;4991525;28;20050;-60
2022/05/23 07:03:39;;;;;;;9.38;5.65;;;;;;;18.57;77.34;100283.13;4992464;28;20046;-60
2022/05/23 07:14:26;;;;;;;9.95;5.32;;;;;;;19.12;73.47;100265.63;4992777;28;20046;-61
2022/05/23 07:16:56;;;;;;;9.02;5.00;;;;;;;19.25;72.77;100268.59;4993143;28;20505;-62
2022/05/23 07:19:24;;;;;;;7.88;4.35;;;;;;;19.41;72.34;100256.19;4992661;28;20145;-61
2022/05/23 07:21:52;;;;;;;7.82;4.30;;;;;;;19.56;70.87;100264.31;4990740;28;20050;-60
2022/05/23 07:24:21;;;;;;;9.88;4.35;;;;;;;19.70;70.26;100254.75;4989077;28;20078;-60
2022/05/23 07:26:49;;;;;;;8.18;4.60;;;;;;;19.84;69.11;100251.38;4991793;28;20057;-60
2022/05/23 07:29:19;;;;;;;9.48;4.15;;;;;;;19.98;66.12;100257.81;4988198;28;20066;-61
2022/05/23 07:31:47;;;;;;;6.50;3.90;;;;;;;20.11;64.50;100251.91;4989955;28;20061;-61
2022/05/23 07:34:16;;;;;;;8.35;3.70;;;;;;;20.21;64.80;100262.34;4992402;28;20132;-59
2022/05/23 07:36:44;;;;;;;8.15;3.80;;;;;;;20.35;64.71;100263.41;4992595;28;20505;-59
2022/05/23 07:39:13;;;;;;;8.80;4.13;;;;;;;20.50;63.53;100260.78;4992349;28;20050;-59
2022/05/23 07:41:44;;;;;;;8.73;3.97;;;;;;;20.62;63.28;100259.34;4992264;28;20082;-60
2022/05/23 07:44:13;;;;;;;9.60;3.55;;;;;;;20.73;62.68;100250.13;4992907;28;20601;-62
2022/05/23 07:46:42;;;;;;;10.20;3.63;;;;;;;20.76;63.36;100245.25;4992274;28;20125;-61
2022/05/23 07:49:10;;;;;;;8.13;3.97;;;;;;;20.73;63.06;100244.75;4992451;28;20449;-60
2022/05/23 07:51:39;;;;;;;10.55;3.80;;;;;;;20.80;63.57;100239.53;4992071;28;20050;-60
2022/05/23 08:02:27;;;;;;;8.75;3.70;;;;;;;21.04;61.26;100219.75;4989375;28;20540;-60
2022/05/23 08:04:55;;;;;;;8.57;3.70;;;;;;;21.08;60.87;100205.81;4983886;28;20048;-60
2022/05/23 08:07:28;;;;;;;8.82;3.95;;;;;;;21.11;61.18;100207.31;4984985;28;20054;-61
2022/05/23 08:10:00;;;;;;;10.50;4.53;;;;;;;21.11;62.23;100200.09;4969367;28;20078;-61
2022/05/23 08:12:31;;;;;;;10.33;4.23;;;;;;;21.17;60.91;100198.53;4977213;28;20034;-61
2022/05/23 08:14:59;;;;;;;11.40;4.40;;;;;;;21.33;60.43;100186.00;4991781;28;20125;-61
2022/05/23 08:17:27;;;;;;;7.75;4.25;;;;;;;21.24;60.18;100187.91;4995925;28;20077;-62
2022/05/23 08:19:55;;;;;;;9.20;4.32;;;;;;;21.36;61.82;100194.44;4995810;28;20046;-62
2022/05/23 08:22:24;;;;;;;10.05;4.22;;;;;;;21.37;60.89;100188.09;4995213;28;20042;-60
2022/05/23 08:24:52;;;;;;;9.45;4.47;;;;;;;21.38;59.83;100192.44;4995387;28;20062;-60
2022/05/23 08:27:21;;;;;;;11.52;4.65;;;;;;;21.32;60.19;100187.81;4990866;28;20448;-62
2022/05/23 08:29:52;;;;;;;8.27;4.28;;;;;;;21.51;59.95;100190.94;4991527;28;20424;-60
2022/05/23 08:32:21;;;;;;;9.35;5.05;;;;;;;21.66;59.94;100191.75;4993767;28;20041;-61
2022/05/23 08:34:49;;;;;;;9.23;5.18;;;;;;;21.93;60.72;100190.19;4993449;28;20045;-62
2022/05/23 08:37:17;;;;;;;11.40;4.75;;;;;;;22.23;60.02;100194.59;4993651;28;20054;-64
2022/05/23 08:39:46;;;;;;;7.68;4.05;;;;;;;22.43;59.05;100190.28;4991765;28;20696;-61
2022/05/23 08:42:27;;;;;;;8.45;4.40;;;;;;;22.55;57.36;100185.22;4989174;28;20516;-63
2022/05/23 08:45:04;;;;;;;10.07;4.38;;;;;;;22.66;56.10;100177.66;4988683;28;20055;-63
2022/05/23 08:47:38;;;;;;;7.88;4.10;;;;;;;22.83;56.03;100170.16;4993872;28;20117;-63
2022/05/23 08:50:13;;;;;;;7.55;3.75;;;;;;;22.95;55.85;100176.63;4993754;28;20050;-63
2022/05/23 08:52:46;;;;;;;6.85;3.95;;;;;;;23.03;56.27;100168.41;4992097;28;20054;-62
2022/05/23 08:55:20;;;;;;;6.22;3.60;;;;;;;23.08;56.96;100165.97;4990449;28;20058;-63
2022/05/23 08:57:56;;;;;;;8.07;3.90;;;;;;;23.03;56.29;100160.38;4988423;28;20142;-62
2022/05/23 09:00:30;;;;;;;8.10;4.60;;;;;;;22.84;57.53;100161.91;4989194;28;20056;-62
2022/05/23 09:03:05;;;;;;;9.20;4.10;;;;;;;22.92;58.10;100147.53;4991272;28;20474;-63
2022/05/23 09:05:36;;;;;;;9.55;4.65;;;;;;;23.02;56.84;100152.53;4992753;28;20064;-62
2022/05/23 09:08:28;;;;;;;7.88;4.03;;;;;;;23.01;56.71;100154.34;4991399;28;20050;-62
2022/05/23 09:11:00;;;;;;;8.07;4.30;;;;;;;22.98;59.02;100162.00;4992099;28;20060;-62
2022/05/23 09:13:30;;;;;;;8.10;4.00;;;;;;;23.27;60.12;100152.84;4988824;28;20038;-62
2022/05/23 09:16:04;;;;;;;9.77;4.20;;;;;;;23.16;59.15;100148.06;4989150;28;20426;-61
2022/05/23 09:18:41;;;;;;;8.20;4.47;;;;;;;23.28;56.49;100133.06;4989214;28;20070;-61
2022/05/23 09:21:10;;;;;;;9.20;4.28;;;;;;;23.52;57.73;100126.34;4986838;28;20042;-61
2022/05/23 09:23:42;;;;;;;14.10;4.75;;;;;;;23.61;55.73;100125.13;4992666;28;20431;-61
2022/05/23 09:26:17;;;;;;;13.50;5.15;;;;;;;23.68;55.39;100126.97;4990544;28;20047;-62
2022/05/23 09:28:45;;;;;;;12.50;4.32;;;;;;;23.78;56.18;100135.47;4991341;28;20066;-61
2022/05/23 09:31:27;;;;;;;9.40;4.38;;;;;;;24.01;55.50;100129.75;4990526;28;20046;-61
2022/05/23 09:33:57;;;;;;;8.80;3.92;;;;;;;23.99;54.90;100123.75;4990372;28;20568;-62
2022/05/23 09:36:28;;;;;;;12.93;4.10;;;;;;;23.92;53.66;100123.72;4992991;28;20073;-61
2022/05/23 09:38:58;;;;;;;12.80;4.68;;;;;;;24.08;54.77;100108.28;4991204;28;20050;-62
2022/05/23 09:47:46;;;;;;;9.60;4.60;;;;;;;23.92;54.44;100096.06;4993910;28;20478;-62
2022/05/23 09:50:29;;;;;;;9.03;4.23;;;;;;;24.10;53.16;100088.19;4988956;28;20080;-62
2022/05/23 09:53:24;;;;;;;9.68;3.72;;;;;;;24.29;52.74;100066.91;4985237;28;20634;-62
2022/05/23 09:56:24;;;;;;;9.20;3.90;;;;;;;24.43;53.09;100055.13;4974485;28;20543;-63
2022/05/23 09:58:53;;;;;;;12.02;4.47;;;;;;;24.62;52.62;100060.66;4978087;28;20129;-62
2022/05/23 10:01:26;;;;;;;9.07;4.13;;;;;;;24.62;51.16;100044.53;4982988;28;20556;-62
2022/05/23 10:03:56;;;;;;;10.90;4.45;;;;;;;24.57;52.03;100052.38;4990514;28;20054;-62
2022/05/23 10:06:35;;;;;;;11.18;4.03;;;;;;;24.60;50.60;100041.22;4989120;28;20143;-62
2022/05/23 10:09:07;;;;;;;7.40;3.40;;;;;;;24.60;49.82;100051.97;4992144;28;20066;-62
2022/05/23 10:11:37;;;;;;;9.15;4.03;;;;;;;24.43;51.85;100040.84;4979736;28;20168;-62
2022/05/23 10:14:08;;;;;;;11.40;4.65;;;;;;;24.28;51.31;100035.72;4989343;28;20370;-61
2022/05/23 10:16:45;;;;;;;9.52;4.57;;;;;;;24.05;52.62;100034.31;4989409;28;20370;-62
2022/05/23 10:19:27;;;;;;;12.48;4.78;;;;;;;24.06;52.44;100035.94;4992045;28;20104;-62
2022/05/23 10:22:09;;;;;;;10.07;4.60;;;;;;;24.04;54.32;100029.16;4986319;28;20090;-61
2022/05/23 10:24:44;;;;;;;12.85;5.30;;;;;;;24.03;53.36;100028.31;4983995;28;20375;-61
2022/05/23 10:27:24;;;;;;;11.07;4.70;;;;;;;23.98;54.66;100022.72;4991336;28;20765;-63
2022/05/23 10:29:55;;;;;;;10.57;4.18;;;;;;;23.87;53.20;100015.28;4986595;28;20121;-63
2022/05/23 10:32:30;;;;;;;9.45;3.97;;;;;;;23.85;53.05;100015.50;4987380;28;20030;-62
2022/05/23 10:35:07;;;;;;;10.15;4.25;;;;;;;23.89;53.18;100007.91;4990935;28;20054;-61
2022/05/23 10:37:37;;;;;;;8.48;4.13;;;;;;;23.96;54.18;99996.09;4991131;28;20054;-62
2022/05/23 10:43:02;;;;;;;10.20;4.72;;;;;;;24.07;54.04;99991.13;4987455;28;20045;-61
2022/05/23 10:45:33;;;;;;;10.38;5.20;;;;;;;24.03;53.58;99988.03;4990333;28;20042;-61
2022/05/23 10:48:42;;;;;;;10.77;5.63;;;;;;;23.89;54.25;99989.09;4990467;28;20078;-60
2022/05/23 10:51:24;;;;;;;10.40;6.32;;;;;;;23.84;54.54;99978.94;4991347;28;20509;-62
2022/05/23 10:54:04;;;;;;;12.82;6.43;;;;;;;23.60;55.30;99972.34;4991608;28;20053;-61
2022/05/23 10:56:57;;;;;;;12.57;6.65;;;;;;;23.68;55.73;99979.38;4990329;28;20104;-59
2022/05/23 10:59:34;;;;;;;10.52;5.97;;;;;;;23.69;57.02;99971.09;4987614;28;20046;-59
2022/05/23 11:02:17;;;;;;;13.80;6.30;;;;;;;23.68;57.09;99977.50;4981912;28;20100;-61
2022/05/23 11:04:50;;;;;;;;;;;;;;;23.48;57.33;99974.00;4992584;28;20050;-61
2022/05/23 11:07:39;;;;;;;10.63;6.75;;;;;;;23.63;57.38;99974.63;4985790;28;19930;-59
2022/05/23 11:10:15;;;;;;;11.93;5.68;;;;;;;23.51;57.95;99969.06;4989845;28;20515;-60
2022/05/23 11:13:15;;;;;;;13.70;6.20;;;;;;;23.51;57.51;99954.81;4973110;28;20043;-60
2022/05/23 11:16:01;;;;;;;10.50;5.55;;;;;;;23.52;58.65;99940.34;4989289;28;20097;-60
2022/05/23 11:18:42;;;;;;;11.55;5.63;;;;;;;23.81;58.31;99936.41;4990751;28;20064;-61
2022/05/23 11:21:16;;;;;;;11.90;6.60;;;;;;;23.95;57.44;99921.13;4991362;28;20053;-61
2022/05/23 11:23:49;;;;;;;14.02;6.30;;;;;;;24.22;57.07;99919.19;4989343;28;20052;-59
2022/05/23 11:26:21;;;;;;;10.15;5.82;;;;;;;24.42;56.11;99927.19;4984877;28;20108;-59
2022/05/23 11:34:34;;;;;;;11.07;5.20;;;;;;;25.40;51.72;99906.34;4990586;28;20061;-62
2022/05/23 11:37:42;;;;;;;10.68;4.68;;;;;;;25.68;51.01;99907.72;4988996;28;20536;-61
2022/05/23 11:40:06;;;;;;;10.23;4.47;;;;;;;26.28;50.24;99901.69;4990494;28;20523;-61
2022/05/23 11:42:41;;;;;;;7.13;3.38;;;;;;;26.06;49.65;99895.16;4991734;28;20077;-62
2022/05/23 11:48:54;;;;;;;7.32;2.83;;;;;;;26.17;48.18;99888.19;4985011;28;20614;-62
2022/05/23 11:51:41;;;;;;;9.05;2.65;;;;;;;26.50;46.20;99876.97;4992317;28;20051;-61
2022/05/23 11:54:13;;;;;;;5.75;2.30;;;;;;;26.80;46.64;99865.34;4994439;28;20042;-61
2022/05/23 11:56:49;;;;;;;6.80;2.90;;;;;;;26.71;45.39;99866.75;4991433;28;20841;-60
2022/05/23 11:59:55;;;;;;;7.47;2.60;;;;;;;26.73;44.93;99861.94;4989659;28;20098;-60
2022/05/23 12:02:26;;;;;;;6.40;3.10;;;;;;;26.75;45.25;99846.34;4994527;28;20050;-61
2022/05/23 12:05:31;;;;;;;7.25;3.03;;;;;;;27.25;44.71;99837.03;4993933;28;20046;-62
2022/05/23 12:08:04;;;;;;;8.02;2.60;;;;;;;27.63;45.17;99811.44;4918054;29;20127;-61
2022/05/23 12:10:58;;;;;;;6.85;2.88;;;;;;;27.94;42.85;99814.78;4933885;29;20103;-64
2022/05/23 12:13:48;;;;;;;5.82;2.70;;;;;;;28.40;43.12;99809.44;4963395;28;20367;-61
2022/05/23 12:16:39;;;;;;;7.03;2.63;;;;;;;28.77;41.18;99801.72;4994020;28;20492;-62
2022/05/23 12:19:14;;;;;;;6.03;2.65;;;;;;;28.68;40.29;99800.50;4984126;28;20096;-64
2022/05/23 12:21:45;;;;;;;6.80;2.60;;;;;;;28.55;41.48;99789.97;4992434;28;20039;-62
2022/05/23 12:24:30;;;;;;;4.68;2.00;;;;;;;28.55;41.90;99784.56;4989076;28;20034;-61
2022/05/23 12:27:29;;;;;;;5.97;2.30;;;;;;;28.30;40.21;99785.75;4983903;28;20315;-61
2022/05/23 12:30:41;;;;;;;5.70;2.50;;;;;;;27.94;41.78;99775.06;4994249;28;20050;-62
2022/05/23 12:33:15;;;;;;;8.75;3.53;;;;;;;27.86;41.30;99770.06;4979460;28;20089;-63
2022/05/23 12:35:52;;;;;;;5.70;3.10;;;;;;;27.68;41.95;99773.75;4992729;28;20457;-65
2022/05/23 12:38:45;;;;;;;10.13;2.92;;;;;;;27.76;41.37;99765.28;4992998;28;20770;-64
2022/05/23 12:41:24;;;;;;;7.97;2.83;;;;;;;28.01;42.89;99768.75;4993948;28;20089;-63
2022/05/23 12:44:20;;;;;;;8.13;3.13;;;;;;;27.78;42.77;99776.66;4993563;28;20046;-64
2022/05/23 12:46:57;;;;;;;5.85;3.35;;;;;;;27.76;42.78;99777.94;4992548;28;20140;-64
2022/05/23 12:49:42;;;;;;;6.68;3.28;;;;;;;27.60;43.16;99772.25;4994181;28;20050;-64
2022/05/23 12:52:24;;;;;;;8.27;3.28;;;;;;;27.55;44.39;99763.22;4993776;28;20538;-64